Time;durP1;ratioP1;P1;durP2;ratioP2;P2;SDS_P1;SDS_P2;PMS_P1;PMS_P2;Temp;Humidity;BMP_temperature;BMP_pressure;BME280_temperature;BME280_humidity;BME280_pressure;Samples;Min_cycle;Max_cycle;Signal;HPM_P1;HPM_P2
2024/01/12 00:01:29;;;;;;;12.05;0.50;;;2.90;99.90;;;;;;4997929;28;20027;-80
2024/01/12 00:03:55;;;;;;;13.80;0.63;;;2.90;99.90;;;;;;4998651;28;20023;-80
2024/01/12 00:06:21;;;;;;;12.60;0.82;;;2.90;99.90;;;;;;4998662;28;20026;-80
2024/01/12 00:08:46;;;;;;;10.45;0.98;;;2.90;99.90;;;;;;4997981;28;20029;-80
2024/01/12 00:11:12;;;;;;;6.30;0.20;;;5.90;99.90;;;;;;4997676;28;20023;-80
2024/01/12 00:13:38;;;;;;;12.65;0.93;;;3.40;99.90;;;;;;4998835;28;20443;-79
2024/01/12 00:16:06;;;;;;;12.35;0.50;;;2.90;99.90;;;;;;4997991;28;20096;-79
2024/01/12 00:18:32;;;;;;;8.05;0.40;;;2.90;99.90;;;;;;4999943;28;20018;-79
2024/01/12 00:20:57;;;;;;;7.05;0.68;;;2.80;99.90;;;;;;4998443;28;20513;-79
2024/01/12 00:23:23;;;;;;;8.88;0.30;;;3.20;99.90;;;;;;4998728;28;20026;-80
2024/01/12 00:25:49;;;;;;;6.38;0.47;;;2.80;99.90;;;;;;4996768;28;20030;-80
2024/01/12 00:28:15;;;;;;;7.78;0.85;;;2.80;99.90;;;;;;4997388;28;20026;-80
2024/01/12 00:30:40;;;;;;;9.75;0.63;;;2.80;99.90;;;;;;4996669;28;20022;-80
2024/01/12 00:33:06;;;;;;;9.55;0.60;;;2.80;99.90;;;;;;4998196;28;20097;-80
2024/01/12 00:35:32;;;;;;;10.27;0.63;;;2.80;99.90;;;;;;4997451;28;20433;-80
2024/01/12 00:37:57;;;;;;;7.90;0.47;;;2.80;99.90;;;;;;4998323;28;20036;-80
2024/01/12 00:40:24;;;;;;;3.75;0.25;;;2.80;99.90;;;;;;4997186;28;20057;-80
2024/01/12 00:42:52;;;;;;;5.50;0.25;;;2.80;99.90;;;;;;4996901;28;20064;-80
2024/01/12 00:45:18;;;;;;;9.25;1.20;;;2.80;99.90;;;;;;4998639;28;20034;-80
2024/01/12 00:47:43;;;;;;;16.85;0.68;;;2.80;99.90;;;;;;4996889;28;20027;-80
2024/01/12 00:50:10;;;;;;;12.98;0.68;;;2.80;99.90;;;;;;4996901;28;20112;-80
2024/01/12 00:52:36;;;;;;;12.30;0.88;;;4.00;99.90;;;;;;4996344;28;20062;-80
2024/01/12 00:55:03;;;;;;;8.40;0.47;;;2.80;99.90;;;;;;4995986;28;20114;-80
2024/01/12 00:57:28;;;;;;;8.57;0.40;;;2.80;99.90;;;;;;4997266;28;20388;-80
2024/01/12 00:59:54;;;;;;;5.90;0.43;;;2.80;99.90;;;;;;4997626;28;20020;-80
2024/01/12 01:02:20;;;;;;;9.13;0.65;;;2.80;99.90;;;;;;4996526;28;20061;-80
2024/01/12 01:04:45;;;;;;;10.98;0.40;;;2.80;99.90;;;;;;4996360;28;20101;-80
2024/01/12 01:07:11;;;;;;;15.30;1.17;;;2.80;99.90;;;;;;4997463;28;20041;-80
2024/01/12 01:09:36;;;;;;;9.57;0.45;;;2.80;99.90;;;;;;4998389;28;20053;-80
2024/01/12 01:12:02;;;;;;;6.85;0.32;;;2.80;99.90;;;;;;4996749;28;20398;-80
2024/01/12 01:14:28;;;;;;;14.82;0.95;;;;;;;;;;4996028;28;20026;-80
2024/01/12 01:16:54;;;;;;;9.95;0.20;;;2.80;99.90;;;;;;4995346;28;20605;-80
2024/01/12 01:19:20;;;;;;;7.30;0.28;;;2.80;99.90;;;;;;4995899;28;20054;-80
2024/01/12 01:21:46;;;;;;;15.98;1.30;;;2.90;99.90;;;;;;4995635;28;20026;-80
2024/01/12 01:24:12;;;;;;;16.13;1.95;;;2.80;99.90;;;;;;4996141;28;20098;-80
2024/01/12 01:26:37;;;;;;;6.28;0.13;;;2.80;99.90;;;;;;4996751;28;20023;-80
2024/01/12 01:29:03;;;;;;;14.60;1.05;;;2.90;99.90;;;;;;4996565;28;20022;-80
2024/01/12 01:31:28;;;;;;;8.15;1.15;;;2.90;99.90;;;;;;4996808;28;20462;-80
2024/01/12 01:33:54;;;;;;;6.00;0.28;;;3.80;99.90;;;;;;4995959;28;20027;-80
2024/01/12 01:36:20;;;;;;;5.25;0.52;;;2.90;99.90;;;;;;4996209;28;20023;-80
2024/01/12 01:38:45;;;;;;;5.30;0.15;;;2.90;99.90;;;;;;4995518;28;20026;-79
2024/01/12 01:41:11;;;;;;;6.55;0.22;;;2.80;99.90;;;;;;4996981;28;20491;-80
2024/01/12 01:43:36;;;;;;;12.80;0.98;;;2.80;99.90;;;;;;4996538;28;20026;-79
2024/01/12 01:46:02;;;;;;;7.35;0.20;;;2.80;99.90;;;;;;4997707;28;20128;-80
2024/01/12 01:48:28;;;;;;;6.13;0.10;;;2.80;99.90;;;;;;4997109;28;20386;-80
2024/01/12 01:50:54;;;;;;;7.90;0.38;;;2.80;99.90;;;;;;4995364;28;20045;-80
2024/01/12 01:53:21;;;;;;;9.07;1.60;;;2.80;99.90;;;;;;4995538;28;20022;-80
2024/01/12 01:55:47;;;;;;;5.32;0.25;;;2.80;99.90;;;;;;4996798;28;20022;-80
2024/01/12 01:58:13;;;;;;;10.32;0.30;;;2.80;99.90;;;;;;4996670;28;20524;-80
2024/01/12 02:00:39;;;;;;;7.22;0.25;;;2.70;99.90;;;;;;4997786;28;20022;-80
2024/01/12 02:03:06;;;;;;;10.15;0.73;;;2.70;99.90;;;;;;4997541;28;20026;-80
2024/01/12 02:05:35;;;;;;;12.32;0.77;;;2.70;99.90;;;;;;4998116;28;20062;-80
2024/01/12 02:08:01;;;;;;;5.28;0.47;;;;;;;;;;4995456;28;20023;-80
2024/01/12 02:10:28;;;;;;;7.15;0.20;;;2.50;99.90;;;;;;4996855;28;20037;-79
2024/01/12 02:12:54;;;;;;;10.40;0.30;;;2.70;99.90;;;;;;4997473;28;20081;-80
2024/01/12 02:15:21;;;;;;;12.23;0.40;;;2.80;99.90;;;;;;4996469;28;20394;-80
2024/01/12 02:17:47;;;;;;;9.93;0.65;;;2.80;99.90;;;;;;4997454;28;20113;-80
2024/01/12 02:20:13;;;;;;;3.35;0.15;;;2.80;99.90;;;;;;4997727;28;20081;-80
2024/01/12 02:22:39;;;;;;;5.75;1.13;;;2.80;99.90;;;;;;4996100;28;20030;-80
2024/01/12 02:25:05;;;;;;;6.95;0.95;;;2.80;99.90;;;;;;4995460;28;20544;-80
2024/01/12 02:27:31;;;;;;;7.35;0.22;;;2.80;99.90;;;;;;4996603;28;20495;-80
2024/01/12 02:29:57;;;;;;;6.97;0.25;;;2.80;99.90;;;;;;4995027;28;20064;-80
2024/01/12 02:32:23;;;;;;;10.63;0.50;;;2.80;99.90;;;;;;4995230;28;20019;-80
2024/01/12 02:34:50;;;;;;;6.88;0.25;;;2.80;99.90;;;;;;4999352;28;20018;-80
2024/01/12 02:58:21;;;;;;;7.97;0.60;;;2.90;99.90;;;;;;5520135;23;20058;-79
2024/01/12 03:00:47;;;;;;;12.05;0.30;;;2.90;99.90;;;;;;5002152;28;20150;-78
2024/01/12 03:03:13;;;;;;;8.13;0.63;;;2.90;99.90;;;;;;5001250;28;20065;-79
2024/01/12 03:51:33;;;;;;;5.13;0.20;;;2.90;99.90;;;;;;5931981;23;20049;-79
2024/01/12 03:53:59;;;;;;;5.50;0.15;;;2.90;99.90;;;;;;4999258;28;20034;-79
2024/01/12 03:56:25;;;;;;;3.53;0.30;;;2.90;99.90;;;;;;4998825;28;20019;-79
2024/01/12 03:58:50;;;;;;;4.75;0.15;;;2.90;99.90;;;;;;4999091;28;20014;-80
2024/01/12 04:01:16;;;;;;;11.13;0.32;;;2.90;99.90;;;;;;4999753;28;20053;-79
2024/01/12 04:03:42;;;;;;;5.47;0.10;;;2.90;99.90;;;;;;4998767;28;20018;-79
2024/01/12 04:06:09;;;;;;;8.55;0.68;;;2.80;99.90;;;;;;4997953;28;20034;-79
2024/01/12 04:08:34;;;;;;;2.97;0.30;;;2.90;99.90;;;;;;4999230;28;20034;-79
2024/01/12 04:11:00;;;;;;;6.95;0.50;;;2.90;99.90;;;;;;4998163;28;20026;-79
2024/01/12 04:13:26;;;;;;;2.88;0.30;;;2.90;99.90;;;;;;4998668;28;20490;-79
2024/01/12 04:15:51;;;;;;;3.20;0.10;;;2.90;99.90;;;;;;4998903;28;20018;-79
2024/01/12 04:18:18;;;;;;;8.15;0.28;;;2.90;99.90;;;;;;4999889;28;20026;-79
2024/01/12 04:20:44;;;;;;;5.65;0.20;;;4.30;99.90;;;;;;4999844;28;20022;-79
2024/01/12 04:23:09;;;;;;;7.47;0.70;;;2.80;99.90;;;;;;4999121;28;20490;-79
2024/01/12 04:25:35;;;;;;;7.88;0.30;;;2.90;99.90;;;;;;4998436;28;20026;-79
2024/01/12 04:28:01;;;;;;;8.48;0.47;;;2.80;99.90;;;;;;4997682;28;20452;-79
2024/01/12 04:30:26;;;;;;;5.25;0.30;;;2.90;99.90;;;;;;4997927;28;20104;-80
2024/01/12 04:32:53;;;;;;;5.40;0.75;;;6.10;99.90;;;;;;4998284;28;20113;-79
2024/01/12 04:35:18;;;;;;;4.85;0.38;;;2.80;99.90;;;;;;4997736;28;20504;-79
2024/01/12 04:37:44;;;;;;;9.63;0.47;;;2.80;99.90;;;;;;4998835;28;20097;-79
2024/01/12 04:40:11;;;;;;;5.85;0.40;;;2.80;99.90;;;;;;4997433;28;20022;-79
2024/01/12 04:42:36;;;;;;;3.40;0.17;;;2.80;99.90;;;;;;4996996;28;20406;-80
2024/01/12 04:45:02;;;;;;;10.55;0.00;;;2.80;99.90;;;;;;4998083;28;20022;-79
2024/01/12 04:47:28;;;;;;;3.17;0.30;;;2.80;99.90;;;;;;4999033;28;20184;-79
2024/01/12 04:49:53;;;;;;;12.48;0.10;;;2.70;99.90;;;;;;4998415;28;20041;-79
2024/01/12 04:52:19;;;;;;;12.15;0.50;;;2.70;99.90;;;;;;4998309;28;20482;-79
2024/01/12 04:54:45;;;;;;;5.72;0.20;;;3.50;99.90;;;;;;4998305;28;20026;-79
2024/01/12 04:57:10;;;;;;;5.20;0.50;;;2.70;99.90;;;;;;4997273;28;20045;-79
2024/01/12 04:59:36;;;;;;;4.13;0.28;;;2.70;99.90;;;;;;4998528;28;20023;-79
2024/01/12 05:02:01;;;;;;;4.13;0.52;;;2.70;99.90;;;;;;4997517;28;20022;-79
2024/01/12 05:04:27;;;;;;;2.83;0.20;;;2.70;99.90;;;;;;4997217;28;20034;-80
2024/01/12 05:06:53;;;;;;;5.45;0.52;;;2.60;99.90;;;;;;4997588;28;20022;-80
2024/01/12 05:09:18;;;;;;;10.23;1.15;;;2.60;99.90;;;;;;4997869;28;20105;-80
2024/01/12 05:11:44;;;;;;;7.22;0.10;;;3.30;99.90;;;;;;4997006;28;20442;-79
2024/01/12 05:14:10;;;;;;;3.47;0.15;;;;;;;;;;4998062;28;20034;-79
2024/01/12 05:16:36;;;;;;;2.63;0.30;;;2.60;99.90;;;;;;4996996;28;20026;-79
2024/01/12 05:19:02;;;;;;;7.20;0.77;;;2.60;99.90;;;;;;4997126;28;20037;-79
2024/01/12 05:21:27;;;;;;;9.07;0.10;;;2.60;99.90;;;;;;4996637;28;20501;-79
2024/01/12 05:23:53;;;;;;;3.47;0.15;;;;;;;;;;4998474;28;20026;-79
2024/01/12 05:26:19;;;;;;;1.33;0.10;;;2.50;99.90;;;;;;4997895;28;20068;-79
2024/01/12 05:28:45;;;;;;;9.13;0.45;;;2.50;99.90;;;;;;4998411;28;20022;-79
2024/01/12 05:31:11;;;;;;;2.38;0.10;;;2.50;99.90;;;;;;4996997;28;20118;-79
2024/01/12 05:33:37;;;;;;;7.57;0.50;;;2.50;99.90;;;;;;4996957;28;20027;-79
2024/01/12 05:36:02;;;;;;;3.72;0.10;;;2.50;99.90;;;;;;4996155;28;20025;-79
2024/01/12 05:38:28;;;;;;;8.18;0.70;;;2.50;99.90;;;;;;4997224;28;20109;-79
2024/01/12 05:40:54;;;;;;;6.63;0.63;;;2.40;99.90;;;;;;4998334;28;20026;-80
2024/01/12 05:43:19;;;;;;;6.28;0.10;;;2.50;99.90;;;;;;4997828;28;20022;-79
2024/01/12 05:45:45;;;;;;;14.05;1.02;;;4.80;99.90;;;;;;4997415;28;20057;-80
2024/01/12 05:48:12;;;;;;;5.13;0.15;;;2.50;99.90;;;;;;4997291;28;20029;-79
2024/01/12 05:50:37;;;;;;;2.65;0.10;;;2.40;99.90;;;;;;4997893;28;20030;-80
2024/01/12 05:53:08;;;;;;;4.78;0.00;;;2.40;99.90;;;;;;4996367;28;20019;-79
2024/01/12 05:55:33;;;;;;;4.13;0.25;;;2.40;99.90;;;;;;4996525;28;20435;-79
2024/01/12 05:57:59;;;;;;;2.95;0.10;;;2.40;99.90;;;;;;4995515;28;20026;-79
2024/01/12 06:00:27;;;;;;;6.25;0.20;;;3.60;99.90;;;;;;4997142;28;20084;-79
2024/01/12 06:02:53;;;;;;;8.55;0.63;;;2.40;99.90;;;;;;4997413;28;20108;-79
2024/01/12 06:05:19;;;;;;;11.93;0.70;;;2.40;99.90;;;;;;4997501;28;20026;-79
2024/01/12 06:07:44;;;;;;;5.03;0.25;;;2.40;99.90;;;;;;4998148;28;20034;-80
2024/01/12 06:10:11;;;;;;;7.65;0.10;;;2.40;99.90;;;;;;5000742;28;20033;-79
2024/01/12 06:12:36;;;;;;;2.83;0.47;;;2.80;99.90;;;;;;5001108;28;20081;-79
2024/01/12 06:15:02;;;;;;;7.00;0.30;;;2.40;99.90;;;;;;5000385;28;20057;-79
2024/01/12 06:17:30;;;;;;;5.68;0.15;;;2.30;99.90;;;;;;5001544;28;20030;-79
2024/01/12 06:19:55;;;;;;;8.98;0.25;;;2.30;99.90;;;;;;5002394;28;20387;-80
2024/01/12 06:22:22;;;;;;;4.93;0.63;;;;;;;;;;5000030;28;20037;-79
2024/01/12 06:24:47;;;;;;;7.63;1.15;;;;;;;;;;5001396;28;20034;-79
2024/01/12 06:27:13;;;;;;;3.78;0.25;;;2.30;99.90;;;;;;5001130;28;20058;-79
2024/01/12 06:29:41;;;;;;;3.80;0.32;;;2.30;99.90;;;;;;5001133;28;20026;-78
2024/01/12 06:32:07;;;;;;;5.82;0.50;;;2.30;99.90;;;;;;5001240;28;20023;-78
2024/01/12 06:34:32;;;;;;;7.97;0.17;;;2.60;99.90;;;;;;4999892;28;20390;-79
2024/01/12 06:36:58;;;;;;;9.77;0.98;;;2.30;99.90;;;;;;4999489;28;20097;-78
2024/01/12 06:39:24;;;;;;;5.30;0.40;;;2.30;99.90;;;;;;5001339;28;20025;-78
2024/01/12 06:41:50;;;;;;;8.98;0.40;;;2.30;99.90;;;;;;5000694;28;20026;-78
2024/01/12 06:44:15;;;;;;;2.85;0.45;;;2.30;99.90;;;;;;5000158;28;20497;-78
2024/01/12 06:46:45;;;;;;;11.88;0.73;;;2.30;99.90;;;;;;5000590;28;20026;-78
2024/01/12 06:49:11;;;;;;;6.82;0.65;;;2.30;99.90;;;;;;5001039;28;20026;-78
2024/01/12 06:51:37;;;;;;;36.35;1.48;;;2.30;99.90;;;;;;5000092;28;20556;-78
2024/01/12 06:54:03;;;;;;;7.03;0.65;;;2.40;99.90;;;;;;5000467;28;20018;-78
2024/01/12 06:56:29;;;;;;;9.10;0.32;;;2.40;99.90;;;;;;5001704;28;20532;-78
2024/01/12 06:58:55;;;;;;;6.25;1.05;;;;;;;;;;4998890;28;20022;-78
2024/01/12 07:01:21;;;;;;;8.27;0.35;;;2.40;99.90;;;;;;5000020;28;20030;-78
2024/01/12 07:03:46;;;;;;;4.55;0.88;;;2.40;99.90;;;;;;5001057;28;20049;-78
2024/01/12 07:06:12;;;;;;;6.43;0.50;;;2.40;99.90;;;;;;4999824;28;20023;-78
2024/01/12 07:08:38;;;;;;;8.32;0.70;;;2.40;99.90;;;;;;5001039;28;20037;-78
2024/01/12 07:11:05;;;;;;;3.40;0.57;;;2.40;99.90;;;;;;5000749;28;20103;-79
2024/01/12 07:13:31;;;;;;;10.45;0.70;;;2.40;99.90;;;;;;5000819;28;20043;-79
2024/01/12 07:15:56;;;;;;;7.32;0.68;;;2.40;99.90;;;;;;5000997;28;20371;-78
2024/01/12 07:18:22;;;;;;;6.30;0.30;;;4.20;99.90;;;;;;4999941;28;20018;-78
2024/01/12 07:20:48;;;;;;;9.60;1.10;;;2.40;99.90;;;;;;5000213;28;20030;-78
2024/01/12 07:23:13;;;;;;;12.18;1.13;;;2.40;99.90;;;;;;5000225;28;20053;-78
2024/01/12 07:25:39;;;;;;;8.07;0.82;;;2.40;99.90;;;;;;5000525;28;20030;-78
2024/01/12 07:28:05;;;;;;;8.13;1.02;;;2.40;99.90;;;;;;5000223;28;20541;-78
2024/01/12 07:30:36;;;;;;;11.82;1.17;;;2.40;99.90;;;;;;4999125;28;20072;-78
2024/01/12 07:33:01;;;;;;;7.85;0.45;;;2.40;99.90;;;;;;4998655;28;20479;-78
2024/01/12 07:53:55;;;;;;;5.43;0.50;;;2.50;99.90;;;;;;5709598;23;20270;-77
2024/01/12 07:56:21;;;;;;;6.63;0.32;;;2.50;99.90;;;;;;5000677;28;20022;-77
2024/01/12 07:58:47;;;;;;;6.95;0.80;;;2.40;99.90;;;;;;5001256;28;20106;-77
2024/01/12 08:01:14;;;;;;;1.73;0.22;;;2.50;99.90;;;;;;5006085;28;20045;-78
2024/01/12 08:03:44;;;;;;;4.78;0.70;;;2.50;99.90;;;;;;4999832;28;20049;-77
2024/01/12 08:06:10;;;;;;;10.50;1.23;;;2.40;99.90;;;;;;5016566;23;20068;-77
2024/01/12 08:08:36;;;;;;;6.70;0.65;;;2.40;99.90;;;;;;5000186;28;20015;-78
2024/01/12 08:11:02;;;;;;;7.15;0.43;;;2.50;99.90;;;;;;5000640;28;20026;-77
2024/01/12 08:13:28;;;;;;;5.13;0.63;;;2.50;99.90;;;;;;5001081;28;20025;-76
2024/01/12 08:15:54;;;;;;;5.97;1.13;;;2.50;99.90;;;;;;5000333;28;20022;-78
2024/01/12 08:18:20;;;;;;;3.45;0.70;;;2.50;99.90;;;;;;5000813;28;20105;-77
2024/01/12 08:20:46;;;;;;;8.75;0.77;;;2.50;99.90;;;;;;4997825;28;20486;-76
2024/01/12 08:23:12;;;;;;;6.72;0.47;;;2.50;99.90;;;;;;4998790;28;20027;-77
2024/01/12 08:25:38;;;;;;;4.65;0.68;;;2.60;99.90;;;;;;5000035;28;20395;-76
2024/01/12 08:28:04;;;;;;;6.50;0.50;;;2.60;99.90;;;;;;4999383;28;20121;-76
2024/01/12 08:30:29;;;;;;;9.10;1.30;;;2.60;99.90;;;;;;4998389;28;20110;-76
2024/01/12 08:32:55;;;;;;;6.70;0.82;;;2.70;99.90;;;;;;4999428;28;20046;-75
2024/01/12 08:35:21;;;;;;;14.55;1.70;;;2.70;99.90;;;;;;4998913;28;20031;-76
2024/01/12 08:37:46;;;;;;;9.65;1.50;;;3.50;99.90;;;;;;4997887;28;20030;-76
2024/01/12 08:40:12;;;;;;;7.60;0.82;;;2.70;99.90;;;;;;4999027;28;20032;-75
2024/01/12 08:42:39;;;;;;;9.35;1.23;;;2.70;99.90;;;;;;4999633;28;20026;-76
2024/01/12 08:45:06;;;;;;;11.52;1.35;;;2.80;99.90;;;;;;4999356;28;20387;-76
2024/01/12 08:47:31;;;;;;;15.63;2.13;;;2.80;99.90;;;;;;4999032;28;20445;-76
2024/01/12 08:49:58;;;;;;;6.22;0.88;;;2.90;99.90;;;;;;4998935;28;20022;-76
2024/01/12 08:52:24;;;;;;;15.75;2.10;;;2.90;99.90;;;;;;4999865;28;20094;-77
2024/01/12 08:54:49;;;;;;;5.72;1.02;;;3.00;99.90;;;;;;4997253;28;20014;-76
2024/01/12 08:57:15;;;;;;;13.90;2.20;;;3.00;99.90;;;;;;4997671;28;20019;-76
2024/01/12 08:59:41;;;;;;;8.02;1.05;;;3.10;99.90;;;;;;4999220;28;20041;-76
2024/01/12 09:02:06;;;;;;;8.68;1.20;;;3.10;99.90;;;;;;5000528;28;20383;-76
2024/01/12 09:04:32;;;;;;;4.90;0.82;;;3.20;99.90;;;;;;4998291;28;20041;-76
2024/01/12 09:06:58;;;;;;;8.43;1.08;;;3.20;99.90;;;;;;5000029;28;20064;-76
2024/01/12 09:09:23;;;;;;;10.10;1.63;;;3.20;99.90;;;;;;4999385;28;20050;-76
2024/01/12 09:11:49;;;;;;;10.20;1.08;;;3.30;99.90;;;;;;4999316;28;20026;-76
2024/01/12 09:14:15;;;;;;;6.35;1.10;;;;;;;;;;5000758;28;20410;-76
2024/01/12 09:16:41;;;;;;;11.35;2.03;;;3.30;99.90;;;;;;4997983;28;20033;-76
2024/01/12 09:19:08;;;;;;;4.32;1.20;;;3.30;99.90;;;;;;4999256;28;20002;-77
2024/01/12 09:21:34;;;;;;;13.88;2.10;;;3.40;99.90;;;;;;4998817;28;20031;-78
2024/01/12 09:24:02;;;;;;;8.23;0.98;;;3.40;99.90;;;;;;4998486;28;20445;-77
2024/01/12 09:26:29;;;;;;;8.82;1.40;;;3.50;99.90;;;;;;4999632;28;20019;-77
2024/01/12 09:28:54;;;;;;;11.35;1.67;;;3.40;99.90;;;;;;4999143;28;20022;-77
2024/01/12 09:31:23;;;;;;;7.53;1.48;;;3.50;99.90;;;;;;4997488;28;20053;-77
2024/01/12 09:33:51;;;;;;;;;;;3.60;99.90;;;;;;4998564;28;20027;-77
2024/01/12 09:36:20;;;;;;;5.55;0.80;;;3.60;99.90;;;;;;4998127;28;19906;-78
2024/01/12 09:38:46;;;;;;;8.18;1.30;;;3.70;99.90;;;;;;4999113;28;20027;-79
2024/01/12 09:41:11;;;;;;;11.35;1.40;;;3.70;99.90;;;;;;4999898;28;20053;-79
2024/01/12 09:43:39;;;;;;;8.98;1.27;;;6.10;99.90;;;;;;5001610;28;20019;-79
2024/01/12 09:46:08;;;;;;;9.13;1.00;;;3.80;99.90;;;;;;5001888;28;20618;-79
2024/01/12 09:48:33;;;;;;;;;;;3.80;99.90;;;;;;5003210;28;20026;-78
2024/01/12 09:51:00;;;;;;;5.47;0.70;;;3.80;99.90;;;;;;5001854;28;20388;-77
2024/01/12 09:53:26;;;;;;;7.60;0.93;;;3.90;99.90;;;;;;5001262;28;20054;-77
2024/01/12 09:55:52;;;;;;;11.18;2.00;;;;;;;;;;5000493;28;20029;-78
2024/01/12 09:58:19;;;;;;;1.85;0.50;;;3.90;99.90;;;;;;5000261;28;20490;-78
2024/01/12 10:00:46;;;;;;;10.60;2.78;;;4.00;99.90;;;;;;5000297;28;20061;-78
2024/01/12 10:03:13;;;;;;;9.52;0.90;;;4.00;99.90;;;;;;5000742;28;20406;-78
2024/01/12 10:05:39;;;;;;;12.70;1.25;;;4.00;99.90;;;;;;5000122;28;20038;-78
2024/01/12 10:08:07;;;;;;;8.65;0.93;;;4.10;99.90;;;;;;5001406;28;20046;-78
2024/01/12 10:10:33;;;;;;;17.10;1.30;;;4.10;99.90;;;;;;5000813;28;20031;-78
2024/01/12 10:13:04;;;;;;;10.13;1.50;;;4.20;99.90;;;;;;5002187;28;20057;-78
2024/01/12 10:15:42;;;;;;;6.93;1.70;;;4.20;99.90;;;;;;5001499;28;20026;-78
2024/01/12 10:18:08;;;;;;;5.27;0.50;;;4.30;99.90;;;;;;5001113;28;20053;-78
2024/01/12 10:20:37;;;;;;;12.13;0.82;;;;;;;;;;4999433;28;20037;-78
2024/01/12 10:23:03;;;;;;;13.32;2.05;;;4.30;99.90;;;;;;4999795;28;20030;-78
2024/01/12 10:25:29;;;;;;;7.15;1.02;;;4.40;99.90;;;;;;5000396;28;20053;-78
2024/01/12 10:27:58;;;;;;;9.52;0.65;;;4.40;99.90;;;;;;5000300;28;20076;-79
2024/01/12 10:30:24;;;;;;;9.73;0.60;;;4.50;99.90;;;;;;5000258;28;20482;-79
2024/01/12 10:32:51;;;;;;;7.95;0.40;;;4.50;99.90;;;;;;4999007;28;20019;-78
2024/01/12 10:35:17;;;;;;;8.57;1.63;;;4.50;99.90;;;;;;5001073;28;20417;-79
2024/01/12 10:37:45;;;;;;;21.50;0.95;;;7.60;99.90;;;;;;4999486;28;20019;-79
2024/01/12 10:40:16;;;;;;;14.80;0.47;;;4.70;99.90;;;;;;4999471;28;20486;-78
2024/01/12 10:42:48;;;;;;;9.75;1.10;;;4.70;99.90;;;;;;5000731;28;20478;-78
2024/01/12 10:45:19;;;;;;;6.63;0.50;;;4.70;99.90;;;;;;4999801;28;20113;-79
2024/01/12 10:47:50;;;;;;;8.32;0.80;;;4.80;99.90;;;;;;5000356;28;20038;-78
2024/01/12 10:50:17;;;;;;;7.72;0.73;;;4.80;99.90;;;;;;4998558;28;20034;-78
2024/01/12 10:53:17;;;;;;;4.50;0.38;;;4.90;99.90;;;;;;4998338;28;20470;-78
2024/01/12 10:55:55;;;;;;;10.93;1.17;;;4.90;99.90;;;;;;4999414;28;20022;-79
2024/01/12 10:58:21;;;;;;;14.23;2.05;;;4.90;99.90;;;;;;5001567;28;20474;-79
2024/01/12 11:00:47;;;;;;;11.40;0.50;;;5.00;99.90;;;;;;5002006;28;20061;-79
2024/01/12 11:03:17;;;;;;;6.90;0.20;;;5.00;99.90;;;;;;4999496;28;20034;-78
2024/01/12 11:05:43;;;;;;;3.03;0.57;;;5.10;99.90;;;;;;4998051;28;20038;-78
2024/01/12 11:08:11;;;;;;;6.20;0.30;;;5.10;99.90;;;;;;4998666;28;20441;-78
2024/01/12 11:10:46;;;;;;;4.78;0.10;;;5.10;99.90;;;;;;4998394;28;20022;-78
2024/01/12 11:13:14;;;;;;;7.47;0.85;;;5.20;99.90;;;;;;5000177;28;20033;-79
2024/01/12 11:15:43;;;;;;;7.80;0.28;;;5.20;99.90;;;;;;4999707;28;20023;-79
2024/01/12 11:18:09;;;;;;;4.82;0.20;;;5.20;99.90;;;;;;5002246;28;20062;-79
2024/01/12 11:20:34;;;;;;;7.13;0.75;;;5.20;99.90;;;;;;4999868;28;20022;-79
2024/01/12 11:23:00;;;;;;;11.68;0.50;;;5.20;99.90;;;;;;4999118;28;20109;-79
2024/01/12 11:25:26;;;;;;;4.00;0.25;;;5.20;99.90;;;;;;5000965;28;20027;-79
2024/01/12 11:27:52;;;;;;;5.28;0.40;;;5.30;99.90;;;;;;5000358;28;20026;-79
2024/01/12 11:30:19;;;;;;;9.68;0.50;;;5.30;99.90;;;;;;4999361;28;20429;-79
2024/01/12 11:32:46;;;;;;;5.78;0.32;;;5.70;99.90;;;;;;5000282;28;20042;-78
2024/01/12 11:35:19;;;;;;;5.72;0.10;;;5.40;99.90;;;;;;4998771;28;20023;-79
2024/01/12 11:37:58;;;;;;;7.15;0.40;;;5.50;99.90;;;;;;5000274;28;20433;-79
2024/01/12 11:40:24;;;;;;;6.55;0.25;;;5.40;99.90;;;;;;4999577;28;20046;-79
2024/01/12 11:42:51;;;;;;;3.05;0.30;;;5.50;99.90;;;;;;5003900;28;20034;-80
2024/01/12 11:45:18;;;;;;;3.65;0.25;;;5.50;99.90;;;;;;5001336;28;20022;-79
2024/01/12 11:47:44;;;;;;;5.82;0.30;;;5.60;99.90;;;;;;4999665;28;20033;-78
2024/01/12 11:50:18;;;;;;;6.05;0.25;;;5.60;99.90;;;;;;5000605;28;20058;-79
2024/01/12 11:52:56;;;;;;;1.88;0.10;;;5.70;99.90;;;;;;4998366;28;20470;-78
2024/01/12 11:55:22;;;;;;;0.85;0.10;;;5.70;99.90;;;;;;5000034;28;20018;-79
2024/01/12 11:57:47;;;;;;;6.57;0.30;;;5.70;99.90;;;;;;4997973;28;20018;-79
2024/01/12 12:00:13;;;;;;;6.70;0.35;;;5.90;99.90;;;;;;5000336;28;20044;-78
2024/01/12 12:02:39;;;;;;;6.00;0.95;;;5.70;99.90;;;;;;4998886;28;20025;-79
2024/01/12 12:05:14;;;;;;;9.50;0.22;;;5.80;99.90;;;;;;4997555;28;20026;-79
2024/01/12 12:07:40;;;;;;;5.43;0.20;;;5.80;99.90;;;;;;5000607;28;20054;-79
2024/01/12 12:10:07;;;;;;;6.03;0.47;;;5.80;99.90;;;;;;4999001;28;20022;-79
2024/01/12 12:12:33;;;;;;;4.57;0.25;;;6.00;99.90;;;;;;4998233;28;20117;-79
2024/01/12 12:15:07;;;;;;;5.88;0.63;;;6.10;99.90;;;;;;5000367;28;20562;-79
2024/01/12 12:17:36;;;;;;;6.40;0.00;;;6.10;99.90;;;;;;4998420;28;20030;-79
2024/01/12 12:20:10;;;;;;;9.77;0.75;;;6.10;99.90;;;;;;5000076;28;20168;-79
2024/01/12 12:22:37;;;;;;;4.60;0.25;;;6.10;99.90;;;;;;4999402;28;20034;-79
2024/01/12 12:25:02;;;;;;;10.02;0.47;;;6.10;99.90;;;;;;4999327;28;20037;-79
2024/01/12 12:27:28;;;;;;;5.70;0.30;;;6.20;99.90;;;;;;5002714;28;20026;-79
2024/01/12 12:29:54;;;;;;;2.90;0.10;;;6.10;99.90;;;;;;5000532;28;20109;-79
2024/01/12 12:32:20;;;;;;;7.32;0.05;;;6.20;99.90;;;;;;4999250;28;20027;-79
2024/01/12 12:34:46;;;;;;;6.70;1.02;;;6.20;99.90;;;;;;4998304;28;20033;-78
2024/01/12 12:37:13;;;;;;;3.88;0.00;;;6.30;99.90;;;;;;4997071;28;20015;-79
2024/01/12 12:39:39;;;;;;;2.17;0.10;;;6.30;99.90;;;;;;4997710;28;20030;-79
2024/01/12 12:42:06;;;;;;;5.55;0.00;;;6.30;99.90;;;;;;4997588;28;20062;-79
2024/01/12 12:44:32;;;;;;;2.20;0.00;;;6.30;99.90;;;;;;4998932;28;20022;-79
2024/01/12 12:47:05;;;;;;;3.10;0.00;;;6.30;99.90;;;;;;4999842;28;20530;-79
2024/01/12 12:49:39;;;;;;;4.78;0.00;;;6.20;99.90;;;;;;4998433;28;20088;-79
2024/01/12 12:52:04;;;;;;;3.63;0.20;;;6.10;99.90;;;;;;4999795;28;20076;-79
2024/01/12 12:54:31;;;;;;;1.23;0.20;;;6.00;99.90;;;;;;4997822;28;20018;-79
2024/01/12 12:57:00;;;;;;;2.95;0.00;;;6.00;99.90;;;;;;4998793;28;20019;-80
2024/01/12 12:59:29;;;;;;;0.43;0.00;;;5.90;99.90;;;;;;5000215;28;20054;-79
2024/01/12 13:01:58;;;;;;;0.57;0.00;;;5.90;99.90;;;;;;5000601;28;20077;-79
2024/01/12 13:04:25;;;;;;;4.03;0.15;;;5.90;99.90;;;;;;4998803;28;20033;-80
2024/01/12 13:06:50;;;;;;;3.28;0.00;;;5.90;99.90;;;;;;4998857;28;20041;-80
2024/01/12 13:09:16;;;;;;;6.70;0.43;;;5.90;99.90;;;;;;5000813;28;20023;-80
2024/01/12 13:11:42;;;;;;;3.45;0.55;;;5.80;99.90;;;;;;4999794;28;20479;-80
2024/01/12 13:14:07;;;;;;;6.80;0.00;;;6.00;99.90;;;;;;5000257;28;20086;-80
2024/01/12 13:16:35;;;;;;;1.92;0.03;;;6.00;99.90;;;;;;5001638;28;20205;-81
2024/01/12 13:19:03;;;;;;;3.35;0.32;;;6.00;99.90;;;;;;5003674;28;20022;-81
2024/01/12 13:21:30;;;;;;;1.03;0.10;;;6.20;99.90;;;;;;5004343;28;20019;-81
2024/01/12 13:23:57;;;;;;;5.72;0.10;;;6.20;99.90;;;;;;5004896;28;20018;-80
2024/01/12 13:26:22;;;;;;;2.20;0.00;;;6.20;99.90;;;;;;5004288;28;20026;-81
2024/01/12 13:28:48;;;;;;;0.30;0.00;;;6.20;99.90;;;;;;5004504;28;20069;-81
2024/01/12 13:31:14;;;;;;;4.78;0.10;;;6.30;99.90;;;;;;5004995;28;20058;-81
2024/01/12 13:33:40;;;;;;;2.72;0.20;;;6.40;99.90;;;;;;5006327;28;20026;-81
2024/01/12 13:36:06;;;;;;;1.27;0.00;;;6.40;99.90;;;;;;5003513;28;20426;-80
2024/01/12 13:38:32;;;;;;;4.18;0.32;;;6.30;99.90;;;;;;5004899;28;20033;-82
2024/01/12 13:40:58;;;;;;;5.63;0.10;;;6.30;99.90;;;;;;5005392;28;20042;-81
2024/01/12 13:43:24;;;;;;;3.13;0.20;;;6.30;99.90;;;;;;5003092;28;20100;-81
2024/01/12 13:45:50;;;;;;;2.33;0.00;;;6.20;99.90;;;;;;5001370;28;20022;-80
2024/01/12 13:48:16;;;;;;;2.33;0.00;;;6.20;99.90;;;;;;4999858;28;20512;-80
2024/01/12 13:50:42;;;;;;;4.65;0.60;;;6.20;99.90;;;;;;4998302;28;20049;-80
2024/01/12 13:53:07;;;;;;;3.60;0.10;;;6.10;99.90;;;;;;4998728;28;20018;-80
2024/01/12 13:55:33;;;;;;;2.47;0.00;;;6.00;99.90;;;;;;5000546;28;20097;-80
2024/01/12 13:57:59;;;;;;;4.30;0.00;;;6.00;99.90;;;;;;5001760;28;20023;-81
2024/01/12 14:00:24;;;;;;;3.92;0.13;;;5.90;99.90;;;;;;4998549;28;20486;-81
2024/01/12 14:02:50;;;;;;;4.40;0.47;;;5.80;99.90;;;;;;5000541;28;20081;-81
2024/01/12 14:05:16;;;;;;;3.83;0.00;;;5.80;99.90;;;;;;4999195;28;20026;-81
2024/01/12 14:07:42;;;;;;;3.53;0.00;;;7.70;99.90;;;;;;4997570;28;20049;-81
2024/01/12 14:10:12;;;;;;;3.13;0.00;;;5.80;99.90;;;;;;4998774;28;20026;-81
2024/01/12 14:12:37;;;;;;;0.55;0.05;;;5.70;99.90;;;;;;4999267;28;20033;-80
2024/01/12 14:15:03;;;;;;;5.82;0.22;;;5.70;99.90;;;;;;5000134;28;20066;-82
2024/01/12 14:17:29;;;;;;;2.08;0.00;;;;;;;;;;4998612;28;20018;-81
2024/01/12 14:19:55;;;;;;;3.47;0.85;;;5.70;99.90;;;;;;4997614;28;20030;-79